Time,TemperatureF,DewpointF,PressureIn,WindDirection,WindDirectionDegrees,WindSpeedMPH,WindSpeedGustMPH,Humidity,HourlyPrecipIn,Conditions,Clouds,dailyrainin,SolarRadiationWatts/m^2,SoftwareType,DateUTC
2013-07-10 00:01:00,62.0,41.0,-100.00,West,276,3.0,10.0,46,0.00,,,0.00,0.000000,,2013-07-10 06:01:00,
2013-07-10 00:11:00,62.0,41.0,-100.00,West,276,3.0,10.0,46,0.00,,,0.00,0.000000,,2013-07-10 06:11:00,
2013-07-10 00:21:00,62.0,41.0,-100.00,West,276,3.0,10.0,46,0.00,,,0.00,0.000000,,2013-07-10 06:21:00,
2013-07-10 00:30:00,60.0,46.0,-100.00,West,268,4.0,8.0,59,0.00,,,0.00,0.000000,,2013-07-10 06:30:00,
2013-07-10 01:01:00,60.0,46.0,-100.00,West,268,4.0,8.0,59,0.00,,,0.00,0.000000,,2013-07-10 07:01:00,
2013-07-10 01:11:00,60.0,46.0,-100.00,West,268,4.0,8.0,59,0.00,,,0.00,0.000000,,2013-07-10 07:11:00,
2013-07-10 01:22:00,60.0,46.0,-100.00,West,268,4.0,8.0,59,0.00,,,0.00,0.000000,,2013-07-10 07:22:00,
2013-07-10 01:30:00,61.0,43.0,-100.00,WSW,237,6.0,10.0,52,0.00,,,0.00,0.000000,,2013-07-10 07:30:00,
2013-07-10 02:01:00,61.0,43.0,-100.00,WSW,237,6.0,10.0,52,0.00,,,0.00,0.000000,,2013-07-10 08:01:00,
2013-07-10 02:11:00,61.0,43.0,-100.00,WSW,237,6.0,10.0,52,0.00,,,0.00,0.000000,,2013-07-10 08:11:00,
2013-07-10 02:22:00,61.0,43.0,-100.00,WSW,237,6.0,10.0,52,0.00,,,0.00,0.000000,,2013-07-10 08:22:00,
2013-07-10 02:30:00,57.0,44.0,-100.00,WSW,248,7.0,10.0,61,0.00,,,0.00,0.000000,,2013-07-10 08:30:00,
2013-07-10 02:53:00,57.0,44.0,-100.00,WSW,248,7.0,10.0,61,0.00,,,0.00,0.000000,,2013-07-10 08:53:00,
2013-07-10 03:02:00,57.0,44.0,-100.00,WSW,248,7.0,10.0,61,0.00,,,0.00,0.000000,,2013-07-10 09:02:00,
2013-07-10 03:12:00,57.0,44.0,-100.00,WSW,248,7.0,10.0,61,0.00,,,0.00,0.000000,,2013-07-10 09:12:00,
2013-07-10 03:21:00,57.0,44.0,-100.00,WSW,248,7.0,10.0,61,0.00,,,0.00,0.000000,,2013-07-10 09:21:00,
2013-07-10 03:30:00,56.0,44.0,-100.00,West,270,7.0,10.0,65,0.00,,,0.00,0.000000,,2013-07-10 09:30:00,
2013-07-10 04:01:00,56.0,44.0,-100.00,West,270,7.0,10.0,65,0.00,,,0.00,0.000000,,2013-07-10 10:01:00,
2013-07-10 04:13:00,56.0,44.0,-100.00,West,270,7.0,10.0,65,0.00,,,0.00,0.000000,,2013-07-10 10:13:00,
2013-07-10 04:23:00,56.0,44.0,-100.00,West,270,7.0,10.0,65,0.00,,,0.00,0.000000,,2013-07-10 10:23:00,
2013-07-10 04:30:00,53.0,44.0,-100.00,WSW,246,8.0,10.0,71,0.00,,,0.00,0.000000,,2013-07-10 10:30:00,
2013-07-10 05:00:00,-999.0,-99.9,-100.00,WSW,246,8.0,10.0,-999,-99.99,,,-99.99,0.000000,,2013-07-10 11:00:00,
2013-07-10 05:11:00,53.0,44.0,-100.00,WSW,246,8.0,10.0,71,0.00,,,0.00,0.000000,,2013-07-10 11:11:00,
2013-07-10 05:22:00,53.0,44.0,-100.00,WSW,246,8.0,10.0,71,0.00,,,0.00,0.000000,,2013-07-10 11:22:00,
2013-07-10 07:30:00,57.0,47.0,-100.00,West,266,3.0,7.0,69,-99.99,,,0.00,133.000000,,2013-07-10 13:30:00,
2013-07-10 08:01:00,57.0,47.0,-100.00,West,266,3.0,7.0,69,-99.99,,,0.00,133.000000,,2013-07-10 14:01:00,
2013-07-10 08:11:00,57.0,47.0,-100.00,West,266,3.0,7.0,69,-99.99,,,0.00,133.000000,,2013-07-10 14:11:00,
2013-07-10 08:22:00,57.0,47.0,-100.00,West,266,3.0,7.0,69,-99.99,,,0.00,133.000000,,2013-07-10 14:22:00,
2013-07-10 08:30:00,66.0,47.0,-100.00,WSW,257,6.0,9.0,51,0.00,,,0.00,324.000000,,2013-07-10 14:30:00,
2013-07-10 09:01:00,66.0,47.0,-100.00,WSW,257,6.0,9.0,51,0.00,,,0.00,324.000000,,2013-07-10 15:01:00,
2013-07-10 09:11:00,66.0,47.0,-100.00,WSW,257,6.0,9.0,51,0.00,,,0.00,324.000000,,2013-07-10 15:11:00,
2013-07-10 09:22:00,66.0,47.0,-100.00,WSW,257,6.0,9.0,51,0.00,,,0.00,324.000000,,2013-07-10 15:22:00,
2013-07-10 09:30:00,74.0,49.0,-100.00,West,267,6.0,11.0,41,0.00,,,0.00,527.000000,,2013-07-10 15:30:00,
2013-07-10 10:01:00,74.0,49.0,-100.00,West,267,6.0,11.0,41,0.00,,,0.00,527.000000,,2013-07-10 16:01:00,
2013-07-10 10:11:00,74.0,49.0,-100.00,West,267,6.0,11.0,41,0.00,,,0.00,527.000000,,2013-07-10 16:11:00,
2013-07-10 10:22:00,74.0,49.0,-100.00,West,267,6.0,11.0,41,0.00,,,0.00,527.000000,,2013-07-10 16:22:00,
2013-07-10 10:30:00,83.0,49.0,-100.00,WNW,285,8.0,13.0,31,0.00,,,0.00,721.000000,,2013-07-10 16:30:00,
2013-07-10 11:01:00,83.0,49.0,-100.00,WNW,285,8.0,13.0,31,0.00,,,0.00,721.000000,,2013-07-10 17:01:00,
2013-07-10 11:11:00,83.0,49.0,-100.00,WNW,285,8.0,13.0,31,0.00,,,0.00,721.000000,,2013-07-10 17:11:00,
2013-07-10 11:23:00,83.0,49.0,-100.00,WNW,285,8.0,13.0,31,0.00,,,0.00,721.000000,,2013-07-10 17:23:00,
2013-07-10 11:30:00,87.0,45.0,-100.00,West,265,6.0,11.0,23,0.00,,,0.00,868.000000,,2013-07-10 17:30:00,
2013-07-10 11:53:00,87.0,45.0,-100.00,West,265,6.0,11.0,23,0.00,,,0.00,868.000000,,2013-07-10 17:53:00,
2013-07-10 12:02:00,87.0,45.0,-100.00,West,265,6.0,11.0,23,0.00,,,0.00,868.000000,,2013-07-10 18:02:00,
2013-07-10 12:11:00,87.0,45.0,-100.00,West,265,6.0,11.0,23,0.00,,,0.00,868.000000,,2013-07-10 18:11:00,
2013-07-10 12:21:00,87.0,45.0,-100.00,West,265,6.0,11.0,23,0.00,,,0.00,868.000000,,2013-07-10 18:21:00,
2013-07-10 12:30:00,91.0,42.0,-100.00,SW,234,7.0,16.0,18,0.00,,,0.00,1010.000000,,2013-07-10 18:30:00,
2013-07-10 12:53:00,91.0,42.0,-100.00,SW,234,7.0,16.0,18,0.00,,,0.00,1010.000000,,2013-07-10 18:53:00,
2013-07-10 13:01:00,91.0,42.0,-100.00,SW,234,7.0,16.0,18,0.00,,,0.00,1010.000000,,2013-07-10 19:01:00,
2013-07-10 13:11:00,91.0,42.0,-100.00,SW,234,7.0,16.0,18,0.00,,,0.00,1010.000000,,2013-07-10 19:11:00,
2013-07-10 13:21:00,91.0,42.0,-100.00,SW,234,7.0,16.0,18,0.00,,,0.00,1010.000000,,2013-07-10 19:21:00,
2013-07-10 13:30:00,93.0,40.0,-100.00,SSW,200,7.0,14.0,16,0.00,,,0.00,1085.000000,,2013-07-10 19:30:00,
2013-07-10 14:01:00,93.0,40.0,-100.00,SSW,200,7.0,14.0,16,0.00,,,0.00,1085.000000,,2013-07-10 20:01:00,
2013-07-10 14:11:00,93.0,40.0,-100.00,SSW,200,7.0,14.0,16,0.00,,,0.00,1085.000000,,2013-07-10 20:11:00,
2013-07-10 14:22:00,93.0,40.0,-100.00,SSW,200,7.0,14.0,16,0.00,,,0.00,1085.000000,,2013-07-10 20:22:00,
2013-07-10 14:30:00,95.0,38.0,-100.00,SW,214,6.0,16.0,14,0.00,,,0.00,1132.000000,,2013-07-10 20:30:00,
2013-07-10 14:52:00,95.0,38.0,-100.00,SW,214,6.0,16.0,14,0.00,,,0.00,1132.000000,,2013-07-10 20:52:00,
2013-07-10 15:01:00,95.0,38.0,-100.00,SW,214,6.0,16.0,14,0.00,,,0.00,1132.000000,,2013-07-10 21:01:00,
2013-07-10 15:11:00,95.0,38.0,-100.00,SW,214,6.0,16.0,14,0.00,,,0.00,1132.000000,,2013-07-10 21:11:00,
2013-07-10 15:21:00,95.0,38.0,-100.00,SW,214,6.0,16.0,14,0.00,,,0.00,1132.000000,,2013-07-10 21:21:00,
2013-07-10 15:30:00,96.0,41.0,-100.00,NE,38,4.0,16.0,15,0.00,,,0.00,758.000000,,2013-07-10 21:30:00,
2013-07-10 15:52:00,96.0,41.0,-100.00,NE,38,4.0,16.0,15,0.00,,,0.00,758.000000,,2013-07-10 21:52:00,
2013-07-10 16:01:00,96.0,41.0,-100.00,NE,38,4.0,16.0,15,0.00,,,0.00,758.000000,,2013-07-10 22:01:00,
2013-07-10 16:11:00,96.0,41.0,-100.00,NE,38,4.0,16.0,15,0.00,,,0.00,758.000000,,2013-07-10 22:11:00,
2013-07-10 16:21:00,96.0,41.0,-100.00,NE,38,4.0,16.0,15,0.00,,,0.00,758.000000,,2013-07-10 22:21:00,
2013-07-10 16:30:00,96.0,35.0,-100.00,West,274,7.0,15.0,12,0.00,,,0.00,628.000000,,2013-07-10 22:30:00,
2013-07-10 16:53:00,96.0,35.0,-100.00,West,274,7.0,15.0,12,0.00,,,0.00,628.000000,,2013-07-10 22:53:00,
2013-07-10 17:01:00,96.0,35.0,-100.00,West,274,7.0,15.0,12,0.00,,,0.00,628.000000,,2013-07-10 23:01:00,
2013-07-10 17:11:00,96.0,35.0,-100.00,West,274,7.0,15.0,12,0.00,,,0.00,628.000000,,2013-07-10 23:11:00,
2013-07-10 17:21:00,96.0,35.0,-100.00,West,274,7.0,15.0,12,0.00,,,0.00,628.000000,,2013-07-10 23:21:00,
2013-07-10 17:30:00,98.0,35.0,-100.00,East,90,5.0,11.0,11,0.00,,,0.00,684.000000,,2013-07-10 23:30:00,
2013-07-10 17:52:00,98.0,35.0,-100.00,East,90,5.0,11.0,11,0.00,,,0.00,684.000000,,2013-07-10 23:52:00,
2013-07-10 18:01:00,98.0,35.0,-100.00,East,90,5.0,11.0,11,0.00,,,0.00,684.000000,,2013-07-11 00:01:00,
2013-07-10 18:11:00,98.0,35.0,-100.00,East,90,5.0,11.0,11,0.00,,,0.00,684.000000,,2013-07-11 00:11:00,
2013-07-10 18:22:00,98.0,35.0,-100.00,East,90,5.0,11.0,11,0.00,,,0.00,684.000000,,2013-07-11 00:22:00,
2013-07-10 18:30:00,94.0,29.0,-100.00,West,267,9.0,17.0,10,0.00,,,0.00,425.000000,,2013-07-11 00:30:00,
2013-07-10 19:01:00,94.0,29.0,-100.00,West,267,9.0,17.0,10,0.00,,,0.00,425.000000,,2013-07-11 01:01:00,
2013-07-10 19:11:00,94.0,29.0,-100.00,West,267,9.0,17.0,10,0.00,,,0.00,425.000000,,2013-07-11 01:11:00,
2013-07-10 19:22:00,94.0,29.0,-100.00,West,267,9.0,17.0,10,0.00,,,0.00,425.000000,,2013-07-11 01:22:00,
2013-07-10 19:30:00,92.0,34.0,-100.00,East,95,7.0,37.0,13,0.00,,,0.00,369.000000,,2013-07-11 01:30:00,
2013-07-10 20:02:00,92.0,34.0,-100.00,East,95,7.0,37.0,13,0.00,,,0.00,369.000000,,2013-07-11 02:02:00,
2013-07-10 20:11:00,92.0,34.0,-100.00,East,95,7.0,37.0,13,0.00,,,0.00,369.000000,,2013-07-11 02:11:00,
2013-07-10 20:22:00,92.0,34.0,-100.00,East,95,7.0,37.0,13,0.00,,,0.00,369.000000,,2013-07-11 02:22:00,
2013-07-10 20:30:00,89.0,40.0,-100.00,NE,41,8.0,11.0,18,0.00,,,0.00,217.000000,,2013-07-11 02:30:00,
2013-07-10 21:01:00,89.0,40.0,-100.00,NE,41,8.0,11.0,18,0.00,,,0.00,217.000000,,2013-07-11 03:01:00,
2013-07-10 21:11:00,89.0,40.0,-100.00,NE,41,8.0,11.0,18,0.00,,,0.00,217.000000,,2013-07-11 03:11:00,
2013-07-10 21:21:00,89.0,40.0,-100.00,NE,41,8.0,11.0,18,0.00,,,0.00,217.000000,,2013-07-11 03:21:00,
2013-07-10 21:30:00,78.0,40.0,-100.00,NNE,24,2.0,9.0,26,0.00,,,0.00,26.000000,,2013-07-11 03:30:00,
2013-07-10 21:52:00,78.0,40.0,-100.00,NNE,24,2.0,9.0,26,0.00,,,0.00,26.000000,,2013-07-11 03:52:00,
2013-07-10 22:01:00,78.0,40.0,-100.00,NNE,24,2.0,9.0,26,0.00,,,0.00,26.000000,,2013-07-11 04:01:00,
2013-07-10 22:11:00,78.0,40.0,-100.00,NNE,24,2.0,9.0,26,0.00,,,0.00,26.000000,,2013-07-11 04:11:00,
2013-07-10 22:22:00,78.0,40.0,-100.00,NNE,24,2.0,9.0,26,0.00,,,0.00,26.000000,,2013-07-11 04:22:00,
2013-07-10 22:30:00,69.0,42.0,-100.00,NW,311,3.0,5.0,38,0.00,,,0.00,0.000000,,2013-07-11 04:30:00,
2013-07-10 23:01:00,69.0,42.0,-100.00,NW,311,3.0,5.0,38,0.00,,,0.00,0.000000,,2013-07-11 05:01:00,
2013-07-10 23:22:00,69.0,42.0,-100.00,NW,311,3.0,5.0,38,0.00,,,0.00,0.000000,,2013-07-11 05:22:00,
2013-07-10 23:30:00,67.0,42.0,-100.00,NNE,14,2.0,5.0,40,0.00,,,0.00,0.000000,,2013-07-11 05:30:00,